Portada
METAR-TAF:

METAR-TAF

Aeroports :

Beauvechain, Bèlgica

latitud: 50-45N, longitud: 004-46E, altitud: 105 m

Observació

L'informe es va fer fa 19 minuts, a les 19:25 UTC
Vent 5 kt del Nord-Est
Temperatura 20°C
Humitat 46%
Pressió 1019 hPa
Visibilitat 10 km o més

METAR: EBBE 011925Z AUTO 05005KT 9999 NCD 20/08 Q1019 BLU

Hora: 21:44 (19:44 UTC)


TAF: manca

Observacions i pronòstics meteorològics de més de 4000 aeroports (METAR i TAF).

Les estacions disponibles són els punts grocs i vermells al mapa.

Posi el ratolí al punt desitjat per veure el nom de l'estació.

Feu clic per veure les observacions i els pronòstics meteorològics.

Per canviar el mapa: feu clic els botons verds amb una creu de color negre per apropar; al botó verd amb un guió per allunyar la imatge; o en les fletxes verdes per a mapes adjacents.


METAR-TAF: